Time;durP1;ratioP1;P1;durP2;ratioP2;P2;SDS_P1;SDS_P2;PMS_P1;PMS_P2;Temp;Humidity;BMP_temperature;BMP_pressure;BME280_temperature;BME280_humidity;BME280_pressure;Samples;Min_cycle;Max_cycle;Signal;HPM_P1;HPM_P2
2021/10/11 00:02:04;;;;;;;72.32;41.70;;;;;;;;;;5082245;28;20062;-85
2021/10/11 00:04:31;;;;;;;76.20;40.80;;;;;;;;;;5105802;28;20044;-85
2021/10/11 00:07:04;;;;;;;73.72;41.20;;;;;;;;;;5092381;28;20054;-84
2021/10/11 00:09:31;;;;;;;72.63;41.42;;;;;;;;;;5106584;28;20052;-85
2021/10/11 00:11:58;;;;;;;79.03;44.60;;;;;;;;;;5093504;28;20064;-85
2021/10/11 00:14:31;;;;;;;75.45;44.58;;;;;;;;;;5111987;28;20062;-85
2021/10/11 00:16:57;;;;;;;81.72;46.10;;;;;;;;;;5091816;28;20043;-85
2021/10/11 00:19:24;;;;;;;88.82;47.90;;;;;;;;;;5107702;28;20241;-85
2021/10/11 00:21:56;;;;;;;101.53;49.00;;;;;;;;;;5107979;28;20052;-85
2021/10/11 00:24:23;;;;;;;97.28;50.50;;;;;;;;;;5104568;28;20062;-85
2021/10/11 00:26:49;;;;;;;92.85;49.70;;;;;;;;;;5102298;28;20055;-85
2021/10/11 00:29:16;;;;;;;94.45;52.05;;;;;;;;;;5101458;28;20044;-85
2021/10/11 00:31:43;;;;;;;101.95;53.53;;;;;;;;;;5083249;28;20148;-85
2021/10/11 00:34:09;;;;;;;98.13;51.30;;;;;;;;;;5101114;28;20071;-85
2021/10/11 00:36:36;;;;;;;109.75;55.33;;;;;;;;;;5085050;28;20059;-85
2021/10/11 00:39:03;;;;;;;101.43;54.28;;;;;;;;;;5095803;28;20227;-85
2021/10/11 00:41:31;;;;;;;99.53;55.70;;;;;;;;;;5111284;28;20302;-85
2021/10/11 00:43:59;;;;;;;104.40;56.85;;;;;;;;;;5081510;28;20143;-85
2021/10/11 00:46:26;;;;;;;103.15;55.70;;;;;;;;;;5081768;28;20048;-85
2021/10/11 00:48:52;;;;;;;99.57;55.60;;;;;;;;;;5099928;28;20047;-84
2021/10/11 00:51:19;;;;;;;106.47;54.63;;;;;;;;;;5101135;28;20412;-85
2021/10/11 00:53:46;;;;;;;108.97;56.08;;;;;;;;;;5082467;28;20048;-85
2021/10/11 00:56:12;;;;;;;106.78;54.35;;;;;;;;;;5083360;28;20067;-85
2021/10/11 00:58:39;;;;;;;116.55;57.70;;;;;;;;;;5100363;28;20056;-84
2021/10/11 01:01:06;;;;;;;112.47;58.60;;;;;;;;;;5100143;28;20055;-84
2021/10/11 01:03:33;;;;;;;107.75;57.20;;;;;;;;;;5081357;28;20067;-85
2021/10/11 01:05:59;;;;;;;110.65;56.53;;;;;;;;;;5080344;28;20239;-85
2021/10/11 01:08:26;;;;;;;112.60;57.80;;;;;;;;;;5098416;28;20052;-85
2021/10/11 01:10:55;;;;;;;107.00;58.90;;;;;;;;;;5098280;28;20056;-85
2021/10/11 01:13:26;;;;;;;116.90;59.20;;;;;;;;;;5096334;28;20048;-85
2021/10/11 01:15:53;;;;;;;111.25;57.75;;;;;;;;;;5080365;28;20136;-85
2021/10/11 01:18:20;;;;;;;115.90;60.05;;;;;;;;;;5080649;28;20055;-85
2021/10/11 01:20:53;;;;;;;115.00;58.00;;;;;;;;;;5081730;28;20424;-85
2021/10/11 01:23:19;;;;;;;119.47;56.63;;;;;;;;;;5081110;28;20058;-84
2021/10/11 01:25:46;;;;;;;118.03;59.50;;;;;;;;;;5083221;28;20332;-84
2021/10/11 01:28:12;;;;;;;105.35;54.92;;;;;;;;;;5081101;28;20040;-84
2021/10/11 01:30:39;;;;;;;109.40;57.42;;;;;;;;;;5099211;28;20044;-84
2021/10/11 01:33:09;;;;;;;105.70;54.67;;;;;;;;;;5080721;28;20048;-85
2021/10/11 01:35:35;;;;;;;114.18;57.58;;;;;;;;;;5081201;28;20113;-84
2021/10/11 01:38:03;;;;;;;114.47;55.50;;;;;;;;;;5082411;28;20411;-84
2021/10/11 01:40:29;;;;;;;103.55;52.63;;;;;;;;;;5080635;28;20048;-85
2021/10/11 01:42:56;;;;;;;103.47;54.20;;;;;;;;;;5096568;28;20048;-85
2021/10/11 01:45:23;;;;;;;109.45;53.45;;;;;;;;;;5098016;28;20047;-85
2021/10/11 01:47:51;;;;;;;111.65;54.40;;;;;;;;;;5080343;28;20090;-85
2021/10/11 01:50:18;;;;;;;112.80;55.78;;;;;;;;;;5079512;28;20051;-85
2021/10/11 01:52:48;;;;;;;112.10;56.00;;;;;;;;;;5079718;28;20056;-85
2021/10/11 01:55:14;;;;;;;99.18;50.65;;;;;;;;;;5079835;28;20056;-85
2021/10/11 01:57:41;;;;;;;122.03;57.58;;;;;;;;;;5099237;28;20147;-85
2021/10/11 02:00:08;;;;;;;99.78;50.92;;;;;;;;;;5079295;28;20051;-85
2021/10/11 02:02:35;;;;;;;118.20;55.15;;;;;;;;;;5096872;28;20048;-85
2021/10/11 02:05:01;;;;;;;111.78;52.47;;;;;;;;;;5112565;28;20038;-85
2021/10/11 02:07:28;;;;;;;118.40;52.85;;;;;;;;;;5095415;28;20086;-85
2021/10/11 02:09:54;;;;;;;109.03;49.67;;;;;;;;;;5084516;28;20059;-85
2021/10/11 02:12:21;;;;;;;107.25;52.65;;;;;;;;;;5073516;28;20072;-85
2021/10/11 02:14:48;;;;;;;105.03;53.72;;;;;;;;;;5077426;28;20068;-85
2021/10/11 02:17:18;;;;;;;102.28;50.17;;;;;;;;;;5091926;28;20062;-84
2021/10/11 02:19:45;;;;;;;104.85;52.28;;;;;;;;;;5087157;28;20066;-85
2021/10/11 02:22:11;;;;;;;100.28;50.30;;;;;;;;;;5076318;28;20048;-84
2021/10/11 02:24:47;;;;;;;124.05;52.85;;;;;;;;;;5076260;28;20098;-84
2021/10/11 02:27:14;;;;;;;111.97;53.63;;;;;;;;;;5076714;28;20041;-85
2021/10/11 02:29:40;;;;;;;111.47;50.65;;;;;;;;;;5075295;28;20387;-84
2021/10/11 02:32:07;;;;;;;109.75;52.55;;;;;;;;;;5074747;28;20060;-84
2021/10/11 02:34:33;;;;;;;106.95;50.22;;;;;;;;;;5075873;28;20056;-84
2021/10/11 02:37:00;;;;;;;115.53;50.22;;;;;;;;;;5075607;28;20048;-85
2021/10/11 02:39:28;;;;;;;107.95;49.55;;;;;;;;;;5072414;28;20048;-85
2021/10/11 02:41:55;;;;;;;122.13;53.20;;;;;;;;;;5055818;28;20045;-84
2021/10/11 02:44:28;;;;;;;98.97;46.97;;;;;;;;;;5054110;28;20045;-85
2021/10/11 02:46:54;;;;;;;108.25;50.10;;;;;;;;;;5054275;28;20240;-84
2021/10/11 02:49:36;;;;;;;99.18;47.42;;;;;;;;;;5055867;28;20094;-84
2021/10/11 02:52:03;;;;;;;99.57;45.90;;;;;;;;;;5055416;28;20059;-84
2021/10/11 02:54:29;;;;;;;102.72;44.58;;;;;;;;;;5054641;28;20053;-84
2021/10/11 02:56:56;;;;;;;111.00;47.78;;;;;;;;;;5054536;28;20471;-84
2021/10/11 02:59:24;;;;;;;105.57;46.20;;;;;;;;;;5055043;28;20056;-84
2021/10/11 03:01:52;;;;;;;95.95;46.08;;;;;;;;;;5062741;28;20045;-84
2021/10/11 03:04:21;;;;;;;102.28;45.10;;;;;;;;;;5064831;28;20200;-84
2021/10/11 03:06:48;;;;;;;108.95;47.28;;;;;;;;;;5077517;28;20049;-84
2021/10/11 03:09:15;;;;;;;88.07;42.70;;;;;;;;;;5077080;28;20118;-84
2021/10/11 03:11:41;;;;;;;94.53;44.33;;;;;;;;;;5089516;28;20395;-85
2021/10/11 03:14:08;;;;;;;100.00;44.08;;;;;;;;;;5079732;28;20047;-84
2021/10/11 03:16:38;;;;;;;106.85;46.08;;;;;;;;;;5079360;28;20044;-84
2021/10/11 03:19:04;;;;;;;94.57;42.17;;;;;;;;;;5077315;28;20048;-85
2021/10/11 03:21:31;;;;;;;104.68;45.53;;;;;;;;;;5076833;28;20054;-85
2021/10/11 03:23:57;;;;;;;101.88;43.67;;;;;;;;;;5095782;28;20052;-85
2021/10/11 03:26:24;;;;;;;100.20;44.00;;;;;;;;;;5080042;28;20044;-85
2021/10/11 03:28:50;;;;;;;98.40;41.67;;;;;;;;;;5080135;28;20048;-85
2021/10/11 03:31:18;;;;;;;97.28;41.67;;;;;;;;;;5098819;28;20048;-85
2021/10/11 03:33:44;;;;;;;91.18;40.20;;;;;;;;;;5089331;28;20044;-85
2021/10/11 03:36:11;;;;;;;90.82;39.97;;;;;;;;;;5094571;28;20048;-85
2021/10/11 03:38:37;;;;;;;99.88;41.22;;;;;;;;;;5100089;28;20044;-85
2021/10/11 03:41:04;;;;;;;118.22;44.00;;;;;;;;;;5083327;28;20058;-85
2021/10/11 03:43:30;;;;;;;87.97;39.13;;;;;;;;;;5085481;28;20055;-84
2021/10/11 03:45:58;;;;;;;78.93;36.95;;;;;;;;;;5057925;28;20055;-85
2021/10/11 03:48:24;;;;;;;92.28;37.78;;;;;;;;;;5060660;28;20040;-85
2021/10/11 03:50:51;;;;;;;92.07;36.83;;;;;;;;;;5091617;28;20052;-85
2021/10/11 03:53:18;;;;;;;91.13;35.50;;;;;;;;;;5082792;28;20047;-85
2021/10/11 03:55:46;;;;;;;101.15;34.47;;;;;;;;;;5078334;28;20368;-86
2021/10/11 03:58:13;;;;;;;185.88;37.10;;;;;;;;;;5093089;28;20044;-86
2021/10/11 04:00:40;;;;;;;75.75;31.77;;;;;;;;;;5075181;28;20055;-86
2021/10/11 04:03:08;;;;;;;62.88;27.98;;;;;;;;;;5074799;28;20073;-86
2021/10/11 04:05:36;;;;;;;81.65;30.88;;;;;;;;;;5093316;28;20073;-85
2021/10/11 04:08:11;;;;;;;60.75;25.80;;;;;;;;;;5094191;28;20040;-86
2021/10/11 04:13:19;;;;;;;53.33;23.35;;;;;;;;;;5094712;28;20107;-85
2021/10/11 04:15:48;;;;;;;56.95;23.27;;;;;;;;;;5076294;28;20062;-85
2021/10/11 04:18:15;;;;;;;55.72;23.77;;;;;;;;;;5061703;28;20228;-85
2021/10/11 04:20:42;;;;;;;50.67;20.27;;;;;;;;;;5078769;28;20121;-85
2021/10/11 04:23:12;;;;;;;46.13;20.17;;;;;;;;;;5063138;28;20044;-85
2021/10/11 04:25:42;;;;;;;51.50;21.83;;;;;;;;;;5098706;28;20048;-85
2021/10/11 04:28:18;;;;;;;56.38;19.50;;;;;;;;;;5099897;28;20180;-85
2021/10/11 04:30:45;;;;;;;52.55;18.17;;;;;;;;;;5082137;28;20543;-85
2021/10/11 04:33:14;;;;;;;49.72;16.10;;;;;;;;;;5098582;28;20459;-85
2021/10/11 04:35:41;;;;;;;41.90;15.93;;;;;;;;;;5103273;28;20097;-84
2021/10/11 04:38:08;;;;;;;43.80;15.27;;;;;;;;;;5084335;28;20055;-84
2021/10/11 04:40:35;;;;;;;40.40;14.85;;;;;;;;;;5096611;28;20129;-86
2021/10/11 04:43:09;;;;;;;34.00;14.02;;;;;;;;;;5075658;28;20296;-84
2021/10/11 04:45:37;;;;;;;30.13;12.60;;;;;;;;;;5093389;28;20048;-85
2021/10/11 04:48:24;;;;;;;34.97;11.95;;;;;;;;;;5100816;28;20047;-86
2021/10/11 04:50:52;;;;;;;32.65;11.85;;;;;;;;;;5068527;28;20147;-87
2021/10/11 04:53:18;;;;;;;39.53;12.27;;;;;;;;;;5060900;28;20040;-85
2021/10/11 04:55:45;;;;;;;37.55;12.15;;;;;;;;;;5063253;28;20103;-85
2021/10/11 04:58:11;;;;;;;41.78;12.60;;;;;;;;;;5079284;28;20049;-84
2021/10/11 05:00:38;;;;;;;34.33;11.75;;;;;;;;;;5076674;28;20133;-85
2021/10/11 05:03:08;;;;;;;37.30;11.38;;;;;;;;;;5093427;28;20103;-85
2021/10/11 05:05:35;;;;;;;27.00;11.35;;;;;;;;;;5081844;28;20048;-86
2021/10/11 05:08:02;;;;;;;35.30;12.95;;;;;;;;;;5056309;28;20231;-84
2021/10/11 05:10:28;;;;;;;38.15;11.52;;;;;;;;;;5091153;28;20068;-84
2021/10/11 05:12:55;;;;;;;29.08;11.05;;;;;;;;;;5063321;28;20173;-85
2021/10/11 05:15:22;;;;;;;35.17;11.85;;;;;;;;;;5079837;28;20079;-85
2021/10/11 05:17:49;;;;;;;35.45;11.73;;;;;;;;;;5061805;28;20201;-86
2021/10/11 05:20:19;;;;;;;35.33;12.07;;;;;;;;;;5064206;28;20126;-86
2021/10/11 05:22:45;;;;;;;44.05;13.05;;;;;;;;;;5056435;28;20049;-85
2021/10/11 05:25:12;;;;;;;39.15;12.68;;;;;;;;;;5073573;28;20072;-86
2021/10/11 05:27:42;;;;;;;29.52;11.88;;;;;;;;;;5054813;28;20238;-85
2021/10/11 05:30:09;;;;;;;38.90;13.13;;;;;;;;;;5080639;28;20190;-85
2021/10/11 05:32:36;;;;;;;37.38;12.27;;;;;;;;;;5089362;28;20413;-85
2021/10/11 05:35:03;;;;;;;35.13;11.75;;;;;;;;;;5105781;28;20042;-85
2021/10/11 05:37:29;;;;;;;34.38;11.65;;;;;;;;;;5093806;28;20223;-85
2021/10/11 05:39:56;;;;;;;37.92;12.32;;;;;;;;;;5072864;28;20538;-85
2021/10/11 05:42:23;;;;;;;32.90;11.40;;;;;;;;;;5071333;28;20108;-85
2021/10/11 05:44:50;;;;;;;32.13;11.38;;;;;;;;;;5085490;28;20100;-85
2021/10/11 05:47:16;;;;;;;30.13;10.18;;;;;;;;;;5076089;28;20052;-86
2021/10/11 05:49:43;;;;;;;35.30;10.88;;;;;;;;;;5069935;28;20063;-85
2021/10/11 05:52:10;;;;;;;36.28;10.38;;;;;;;;;;5054451;28;20066;-85
2021/10/11 05:54:37;;;;;;;34.53;9.18;;;;;;;;;;5074656;28;20297;-85
2021/10/11 05:57:06;;;;;;;32.88;9.52;;;;;;;;;;5085892;28;20048;-85
2021/10/11 05:59:51;;;;;;;27.88;9.07;;;;;;;;;;5071320;28;20079;-85
2021/10/11 06:02:32;;;;;;;22.50;7.43;;;;;;;;;;5088073;28;20101;-86
2021/10/11 06:05:14;;;;;;;25.98;7.50;;;;;;;;;;5070564;28;20369;-84
2021/10/11 06:07:54;;;;;;;21.85;6.97;;;;;;;;;;5068463;28;20263;-85
2021/10/11 06:10:47;;;;;;;13.43;5.50;;;;;;;;;;5052938;28;20530;-86
2021/10/11 06:13:39;;;;;;;24.35;6.53;;;;;;;;;;5066908;28;20062;-85
2021/10/11 06:16:23;;;;;;;25.25;5.75;;;;;;;;;;5086701;28;20048;-85
2021/10/11 06:19:05;;;;;;;27.90;5.03;;;;;;;;;;5068842;28;20067;-86
2021/10/11 06:21:56;;;;;;;18.45;4.95;;;;;;;;;;5070565;28;20059;-85
2021/10/11 06:24:34;;;;;;;18.77;4.80;;;;;;;;;;5073377;28;20048;-86
2021/10/11 06:27:03;;;;;;;30.27;5.18;;;;;;;;;;5061450;28;20240;-84
2021/10/11 06:29:43;;;;;;;20.05;4.55;;;;;;;;;;5064954;28;20036;-86
2021/10/11 06:32:25;;;;;;;20.60;4.95;;;;;;;;;;5080379;28;20110;-86
2021/10/11 06:34:57;;;;;;;20.67;4.93;;;;;;;;;;5051153;28;20268;-85
2021/10/11 06:37:36;;;;;;;12.90;4.10;;;;;;;;;;5066116;28;20296;-86
2021/10/11 06:40:23;;;;;;;16.38;3.58;;;;;;;;;;5088043;28;20059;-85
2021/10/11 06:43:09;;;;;;;15.60;4.22;;;;;;;;;;5087772;28;20048;-85
2021/10/11 06:46:00;;;;;;;15.57;4.32;;;;;;;;;;5075936;28;20048;-85
2021/10/11 06:48:36;;;;;;;25.80;3.67;;;;;;;;;;5087679;28;20315;-85
2021/10/11 06:51:08;;;;;;;14.60;4.22;;;;;;;;;;5067838;28;20064;-85
2021/10/11 06:53:38;;;;;;;22.52;4.97;;;;;;;;;;5057059;28;20060;-86
2021/10/11 06:56:11;;;;;;;18.80;4.38;;;;;;;;;;5070579;28;20057;-85
2021/10/11 06:58:38;;;;;;;15.88;4.05;;;;;;;;;;5054722;28;20052;-85
2021/10/11 07:01:07;;;;;;;12.18;3.40;;;;;;;;;;5060416;28;20241;-85
2021/10/11 07:03:37;;;;;;;21.10;3.17;;;;;;;;;;5057944;28;20044;-85
2021/10/11 07:06:07;;;;;;;20.02;3.17;;;;;;;;;;5068158;28;20609;-85
2021/10/11 07:08:34;;;;;;;13.23;3.17;;;;;;;;;;5051508;28;20279;-86
2021/10/11 07:11:01;;;;;;;13.02;3.00;;;;;;;;;;5038280;28;20210;-86
2021/10/11 07:13:30;;;;;;;14.77;2.80;;;;;;;;;;5038588;28;20488;-85
2021/10/11 07:16:03;;;;;;;11.57;2.90;;;;;;;;;;5046652;28;20139;-83
2021/10/11 07:18:35;;;;;;;14.38;2.97;;;;;;;;;;5068359;28;20087;-84
2021/10/11 07:21:02;;;;;;;13.15;2.58;;;;;;;;;;5055472;28;20055;-84
2021/10/11 07:23:29;;;;;;;9.02;2.47;;;;;;;;;;5046473;28;20225;-84
2021/10/11 07:25:57;;;;;;;10.82;2.50;;;;;;;;;;5052969;28;20057;-84
2021/10/11 07:28:25;;;;;;;9.32;2.13;;;;;;;;;;5067325;28;20053;-84
2021/10/11 07:30:56;;;;;;;12.07;2.20;;;;;;;;;;5065832;28;20055;-84
2021/10/11 07:33:23;;;;;;;16.90;2.55;;;;;;;;;;5064924;28;20531;-84
2021/10/11 07:35:50;;;;;;;10.05;1.77;;;;;;;;;;5052360;28;20148;-84
2021/10/11 07:38:24;;;;;;;12.77;2.17;;;;;;;;;;5063289;28;20056;-84
2021/10/11 07:40:54;;;;;;;15.30;2.40;;;;;;;;;;5063778;28;20053;-84
2021/10/11 07:43:24;;;;;;;11.25;2.30;;;;;;;;;;5065942;28;20460;-83
2021/10/11 07:46:02;;;;;;;9.93;1.92;;;;;;;;;;5065066;28;20239;-84
2021/10/11 07:48:30;;;;;;;8.10;1.90;;;;;;;;;;5066188;28;20044;-83
2021/10/11 07:50:57;;;;;;;15.13;2.92;;;;;;;;;;5072441;28;20056;-84
2021/10/11 07:53:36;;;;;;;11.93;2.53;;;;;;;;;;5073291;28;20300;-83
2021/10/11 07:56:03;;;;;;;7.97;2.10;;;;;;;;;;5067382;28;20298;-83
2021/10/11 07:58:40;;;;;;;12.57;2.53;;;;;;;;;;5069755;28;20233;-84
2021/10/11 08:01:18;;;;;;;15.50;2.78;;;;;;;;;;5071737;28;20574;-83
2021/10/11 08:04:16;;;;;;;10.63;2.20;;;;;;;;;;5072950;28;20045;-84
2021/10/11 08:07:24;;;;;;;9.63;1.85;;;;;;;;;;5085508;28;20275;-84
2021/10/11 08:09:53;;;;;;;9.52;1.90;;;;;;;;;;5068024;28;20066;-83
2021/10/11 08:12:20;;;;;;;10.32;1.80;;;;;;;;;;5048741;28;20375;-83
2021/10/11 08:14:46;;;;;;;15.02;2.70;;;;;;;;;;5050647;28;20121;-83
2021/10/11 08:17:13;;;;;;;11.88;1.85;;;;;;;;;;5053726;28;20223;-84
2021/10/11 08:19:46;;;;;;;12.13;2.58;;;;;;;;;;5071776;28;20059;-84
2021/10/11 08:22:15;;;;;;;8.30;2.20;;;;;;;;;;5074676;28;20056;-84
2021/10/11 08:24:41;;;;;;;10.68;2.58;;;;;;;;;;5088100;28;20453;-84
2021/10/11 08:27:16;;;;;;;12.02;2.03;;;;;;;;;;5070926;28;20044;-84
2021/10/11 08:29:52;;;;;;;8.45;1.67;;;;;;;;;;5052525;28;20082;-83
2021/10/11 08:32:19;;;;;;;8.27;1.73;;;;;;;;;;5051795;28;20164;-84
2021/10/11 08:34:46;;;;;;;7.28;1.90;;;;;;;;;;5081364;28;20258;-84
2021/10/11 08:37:13;;;;;;;9.13;2.03;;;;;;;;;;5083545;28;20446;-84
2021/10/11 08:39:54;;;;;;;10.93;1.90;;;;;;;;;;5072468;28;20094;-85
2021/10/11 08:42:25;;;;;;;9.63;1.48;;;;;;;;;;5072701;28;20120;-84
2021/10/11 08:44:55;;;;;;;8.63;1.95;;;;;;;;;;5071671;28;20044;-84
2021/10/11 08:47:25;;;;;;;10.70;1.98;;;;;;;;;;5073925;28;20350;-85
2021/10/11 08:49:52;;;;;;;10.50;2.05;;;;;;;;;;5058642;28;20045;-85
2021/10/11 08:52:22;;;;;;;6.97;1.63;;;;;;;;;;5060775;28;20045;-85
2021/10/11 08:54:56;;;;;;;13.30;2.08;;;;;;;;;;5070913;28;20044;-86
2021/10/11 08:57:33;;;;;;;6.90;1.58;;;;;;;;;;5070314;28;20142;-84
2021/10/11 09:00:12;;;;;;;8.40;1.70;;;;;;;;;;5055308;28;20489;-86
2021/10/11 09:02:56;;;;;;;9.10;1.73;;;;;;;;;;5050606;28;20153;-86
2021/10/11 09:08:48;;;;;;;6.28;1.80;;;;;;;;;;5064521;28;20376;-86
2021/10/11 09:11:39;;;;;;;10.82;1.83;;;;;;;;;;5055057;28;20119;-85
2021/10/11 09:14:34;;;;;;;7.43;1.77;;;;;;;;;;5036135;28;20228;-86
2021/10/11 09:20:42;;;;;;;7.05;1.80;;;;;;;;;;5017939;28;20068;-84
2021/10/11 09:23:32;;;;;;;13.47;1.67;;;;;;;;;;5050221;28;20136;-84
2021/10/11 09:30:07;;;;;;;8.80;1.85;;;;;;;;;;4973132;28;20073;-85
2021/10/11 09:36:04;;;;;;;6.00;1.63;;;;;;;;;;4985937;28;20494;-84
2021/10/11 09:39:02;;;;;;;8.68;1.55;;;;;;;;;;4967265;28;20054;-84
2021/10/11 09:41:54;;;;;;;12.82;1.73;;;;;;;;;;4973007;28;20289;-84
2021/10/11 09:44:58;;;;;;;7.30;1.42;;;;;;;;;;5054256;28;20055;-84
2021/10/11 09:54:47;;;;;;;;;;;;;;;;;;;;;
2021/10/11 10:00:41;;;;;;;10.50;1.83;;;;;;;;;;5044838;28;20143;-83
2021/10/11 10:03:55;;;;;;;8.52;2.05;;;;;;;;;;5047779;28;20049;-83
2021/10/11 10:07:02;;;;;;;5.57;1.20;;;;;;;;;;5000026;28;20049;-83
2021/10/11 10:13:49;;;;;;;6.55;1.25;;;;;;;;;;4995666;28;20157;-84
2021/10/11 10:20:55;;;;;;;5.25;1.33;;;;;;;;;;5002712;28;20057;-86
2021/10/11 10:27:36;;;;;;;7.15;1.48;;;;;;;;;;5018416;28;20054;-83
2021/10/11 10:30:31;;;;;;;7.75;1.50;;;;;;;;;;4990418;28;20050;-85
2021/10/11 10:40:13;;;;;;;10.23;1.98;;;;;;;;;;4917972;29;20119;-84
2021/10/11 10:47:01;;;;;;;;;;;;;;;;;;;;;
2021/10/11 11:03:33;;;;;;;8.10;0.93;;;;;;;;;;4972057;28;20293;-83
2021/10/11 11:13:24;;;;;;;;;;;;;;;;;;;;;
2021/10/11 11:16:09;;;;;;;8.10;1.30;;;;;;;;;;4985081;28;20038;-83
2021/10/11 11:19:09;;;;;;;6.57;1.10;;;;;;;;;;4988423;28;20041;-84
2021/10/11 11:22:44;;;;;;;;;;;;;;;;;;;;;
2021/10/11 11:25:53;;;;;;;7.68;1.00;;;;;;;;;;5017822;28;20060;-83
2021/10/11 11:35:55;;;;;;;5.05;1.00;;;;;;;;;;5027292;28;20045;-83
2021/10/11 11:39:06;;;;;;;6.57;1.30;;;;;;;;;;5038478;28;20131;-82
2021/10/11 11:42:21;;;;;;;;;;;;;;;;;;;;;
2021/10/11 11:45:39;;;;;;;9.00;1.50;;;;;;;;;;5007795;28;20160;-84
2021/10/11 11:48:46;;;;;;;12.48;1.38;;;;;;;;;;4994806;28;20053;-83
2021/10/11 11:51:33;;;;;;;7.28;1.00;;;;;;;;;;4979422;28;20171;-84
2021/10/11 11:54:58;;;;;;;6.45;1.42;;;;;;;;;;4951031;28;20042;-83
2021/10/11 12:01:18;;;;;;;4.07;1.40;;;;;;;;;;4975193;28;20295;-83
2021/10/11 12:08:01;;;;;;;6.75;1.17;;;;;;;;;;5054378;28;20068;-83
2021/10/11 12:14:46;;;;;;;;;;;;;;;;;;;;;
2021/10/11 12:21:15;;;;;;;;;;;;;;;;;;;;;
2021/10/11 12:24:23;;;;;;;5.63;0.93;;;;;;;;;;5054514;28;20147;-82
2021/10/11 12:27:33;;;;;;;6.95;0.93;;;;;;;;;;5073480;28;20263;-83
2021/10/11 12:30:40;;;;;;;3.95;0.95;;;;;;;;;;5076192;28;20056;-83
2021/10/11 12:33:47;;;;;;;5.25;0.98;;;;;;;;;;5078196;28;20040;-85
2021/10/11 12:36:33;;;;;;;3.67;1.13;;;;;;;;;;5090584;28;20572;-83
2021/10/11 12:39:20;;;;;;;9.95;1.25;;;;;;;;;;5092095;28;20048;-82
2021/10/11 12:42:24;;;;;;;11.73;1.30;;;;;;;;;;5083429;28;20332;-83
2021/10/11 12:45:19;;;;;;;7.88;1.08;;;;;;;;;;5057413;28;20234;-85
2021/10/11 12:48:07;;;;;;;6.25;1.08;;;;;;;;;;5066955;28;20045;-83
2021/10/11 12:51:11;;;;;;;5.70;0.95;;;;;;;;;;5048314;28;20140;-82
2021/10/11 12:53:55;;;;;;;7.57;1.27;;;;;;;;;;5031450;28;20224;-83
2021/10/11 12:56:41;;;;;;;10.15;1.95;;;;;;;;;;5039068;28;20110;-83
2021/10/11 12:59:43;;;;;;;17.23;2.50;;;;;;;;;;5024375;28;20118;-82
2021/10/11 13:02:38;;;;;;;11.63;1.17;;;;;;;;;;5073133;28;20067;-83
2021/10/11 13:05:24;;;;;;;6.80;0.80;;;;;;;;;;5065744;28;20373;-82
2021/10/11 13:08:07;;;;;;;;;;;;;;;;;;;;;
2021/10/11 13:11:05;;;;;;;4.10;1.00;;;;;;;;;;5080629;28;20124;-82
2021/10/11 13:13:54;;;;;;;4.97;0.50;;;;;;;;;;5059651;28;20350;-82
2021/10/11 13:16:28;;;;;;;5.75;0.80;;;;;;;;;;5062736;28;20236;-82
2021/10/11 13:22:13;;;;;;;6.40;0.80;;;;;;;;;;5066330;28;20388;-83
2021/10/11 13:28:04;;;;;;;4.43;0.70;;;;;;;;;;5070636;28;20547;-82
2021/10/11 14:29:57;;;;;;;8.50;1.70;;;;;;;;;;4998356;28;20089;-82
2021/10/11 16:04:17;;;;;;;5.22;0.73;;;;;;;;;;5073038;28;20056;-84
2021/10/11 16:07:04;;;;;;;9.07;1.23;;;;;;;;;;5061444;28;20196;-83
2021/10/11 16:09:40;;;;;;;2.55;0.77;;;;;;;;;;5063023;28;20235;-84
2021/10/11 16:12:22;;;;;;;3.70;0.82;;;;;;;;;;5049701;28;20321;-84
2021/10/11 16:14:52;;;;;;;5.85;2.20;;;;;;;;;;5061812;28;20140;-83
2021/10/11 16:17:49;;;;;;;5.85;1.73;;;;;;;;;;5057690;28;20238;-83
2021/10/11 16:20:31;;;;;;;8.35;1.00;;;;;;;;;;5066785;28;20109;-83
2021/10/11 16:23:11;;;;;;;6.60;1.77;;;;;;;;;;5091861;28;20146;-83
2021/10/11 16:25:43;;;;;;;6.57;1.60;;;;;;;;;;5058017;28;20075;-84
2021/10/11 16:28:31;;;;;;;6.07;1.75;;;;;;;;;;5059286;28;20534;-83
2021/10/11 16:31:04;;;;;;;13.38;2.20;;;;;;;;;;5067022;28;20048;-84
2021/10/11 16:33:39;;;;;;;8.55;1.70;;;;;;;;;;5066331;28;20065;-82
2021/10/11 16:36:11;;;;;;;8.35;1.30;;;;;;;;;;5084518;28;20052;-82
2021/10/11 16:38:40;;;;;;;11.07;1.52;;;;;;;;;;5067025;28;20131;-81
2021/10/11 16:41:07;;;;;;;7.55;1.10;;;;;;;;;;5066472;28;20113;-82
2021/10/11 16:43:40;;;;;;;9.77;2.13;;;;;;;;;;5066120;28;20238;-83
2021/10/11 16:46:26;;;;;;;10.88;1.13;;;;;;;;;;5055325;28;20273;-81
2021/10/11 16:49:01;;;;;;;6.80;1.00;;;;;;;;;;5053397;28;20121;-81
2021/10/11 16:51:48;;;;;;;15.82;1.38;;;;;;;;;;5049363;28;20121;-81
2021/10/11 16:54:28;;;;;;;13.60;1.33;;;;;;;;;;5065674;28;20222;-81
2021/10/11 16:57:13;;;;;;;10.07;1.20;;;;;;;;;;5071300;28;20040;-81
2021/10/11 16:59:47;;;;;;;7.90;1.25;;;;;;;;;;5065097;28;20063;-82
2021/10/11 17:02:28;;;;;;;10.98;1.20;;;;;;;;;;5054023;28;20600;-82
2021/10/11 17:05:14;;;;;;;7.13;1.20;;;;;;;;;;5066757;28;20055;-82
2021/10/11 17:07:49;;;;;;;6.35;1.20;;;;;;;;;;5079325;28;20049;-82
2021/10/11 17:10:43;;;;;;;10.82;1.50;;;;;;;;;;5068505;28;20067;-82
2021/10/11 17:13:11;;;;;;;18.05;1.17;;;;;;;;;;5063827;28;20129;-82
2021/10/11 17:15:49;;;;;;;12.10;1.63;;;;;;;;;;5049785;28;20047;-83
2021/10/11 17:18:56;;;;;;;13.85;1.58;;;;;;;;;;5073818;28;20479;-83
2021/10/11 17:21:31;;;;;;;7.43;1.63;;;;;;;;;;5055708;28;20059;-82
2021/10/11 17:24:22;;;;;;;9.95;1.45;;;;;;;;;;5060386;28;20635;-83
2021/10/11 17:26:55;;;;;;;15.52;1.33;;;;;;;;;;5063573;28;20482;-83
2021/10/11 17:29:30;;;;;;;5.78;1.10;;;;;;;;;;5052741;28;20099;-83
2021/10/11 17:31:57;;;;;;;6.93;1.45;;;;;;;;;;5055149;28;20064;-82
2021/10/11 17:34:36;;;;;;;11.48;2.03;;;;;;;;;;5078800;28;20040;-82
2021/10/11 17:37:09;;;;;;;8.48;1.58;;;;;;;;;;5060874;28;20040;-82
2021/10/11 17:39:39;;;;;;;11.18;1.35;;;;;;;;;;5066767;28;20344;-82
2021/10/11 17:42:14;;;;;;;10.55;1.58;;;;;;;;;;5064917;28;20056;-82
2021/10/11 17:44:49;;;;;;;12.05;1.15;;;;;;;;;;5069821;28;20048;-82
2021/10/11 17:47:31;;;;;;;15.55;1.80;;;;;;;;;;5087215;28;20250;-82
2021/10/11 17:50:20;;;;;;;9.50;1.52;;;;;;;;;;5053053;28;20283;-82
2021/10/11 17:53:00;;;;;;;7.65;1.70;;;;;;;;;;5064570;28;20260;-82
2021/10/11 17:55:35;;;;;;;14.05;1.55;;;;;;;;;;5063699;28;20180;-82
2021/10/11 17:58:06;;;;;;;10.20;1.70;;;;;;;;;;5055216;28;20313;-82
2021/10/11 18:00:36;;;;;;;11.57;1.58;;;;;;;;;;5044950;28;20360;-82
2021/10/11 18:03:13;;;;;;;12.15;1.60;;;;;;;;;;5043875;28;20105;-82
2021/10/11 18:05:41;;;;;;;5.13;1.60;;;;;;;;;;5045970;28;20178;-83
2021/10/11 18:08:13;;;;;;;13.43;1.90;;;;;;;;;;5058852;28;20060;-83
2021/10/11 18:10:40;;;;;;;15.48;1.88;;;;;;;;;;5081544;28;20210;-83
2021/10/11 18:13:12;;;;;;;8.75;1.58;;;;;;;;;;5064468;28;20052;-83
2021/10/11 18:15:45;;;;;;;14.77;1.73;;;;;;;;;;5083237;28;20039;-81
2021/10/11 18:18:29;;;;;;;11.02;1.77;;;;;;;;;;5066042;28;20105;-83
2021/10/11 18:21:02;;;;;;;8.27;1.95;;;;;;;;;;5066128;28;20080;-83
2021/10/11 18:23:46;;;;;;;13.57;2.33;;;;;;;;;;5080965;28;20048;-83
2021/10/11 18:26:13;;;;;;;16.67;2.33;;;;;;;;;;5065762;28;20467;-83
2021/10/11 18:28:43;;;;;;;14.90;1.85;;;;;;;;;;5064921;28;20055;-85
2021/10/11 18:31:12;;;;;;;13.80;1.98;;;;;;;;;;5058868;28;20057;-83
2021/10/11 18:33:50;;;;;;;16.55;2.75;;;;;;;;;;5062851;28;20048;-83
2021/10/11 18:36:23;;;;;;;18.15;2.15;;;;;;;;;;5065820;28;20041;-83
2021/10/11 18:39:01;;;;;;;16.50;2.33;;;;;;;;;;5066977;28;20055;-83
2021/10/11 18:41:33;;;;;;;15.93;3.22;;;;;;;;;;5062946;28;20151;-83
2021/10/11 18:44:08;;;;;;;11.25;2.38;;;;;;;;;;5084660;28;20050;-83
2021/10/11 18:46:52;;;;;;;11.45;2.88;;;;;;;;;;5065067;28;20076;-83
2021/10/11 18:49:19;;;;;;;19.83;2.22;;;;;;;;;;5067806;28;20308;-83
2021/10/11 18:51:53;;;;;;;18.27;2.42;;;;;;;;;;5082525;28;20134;-82
2021/10/11 18:54:23;;;;;;;13.20;2.25;;;;;;;;;;5067125;28;20036;-83
2021/10/11 18:56:52;;;;;;;16.27;2.35;;;;;;;;;;5069572;28;20045;-83
2021/10/11 18:59:24;;;;;;;19.42;2.55;;;;;;;;;;5051822;28;20088;-82
2021/10/11 19:02:02;;;;;;;14.20;1.98;;;;;;;;;;5057428;28;20109;-83
2021/10/11 19:04:32;;;;;;;11.77;1.70;;;;;;;;;;5063184;28;20055;-83
2021/10/11 19:07:15;;;;;;;15.10;2.83;;;;;;;;;;5061387;28;20423;-82
2021/10/11 19:09:43;;;;;;;11.98;2.03;;;;;;;;;;5088948;28;20463;-82
2021/10/11 19:12:13;;;;;;;9.32;2.13;;;;;;;;;;5067074;28;20203;-82
2021/10/11 19:14:41;;;;;;;11.18;1.60;;;;;;;;;;5068283;28;20108;-82
2021/10/11 19:17:11;;;;;;;13.80;2.40;;;;;;;;;;5048824;28;20362;-82
2021/10/11 19:20:00;;;;;;;8.85;2.65;;;;;;;;;;5048837;28;20067;-82
2021/10/11 19:22:28;;;;;;;11.23;2.42;;;;;;;;;;5048634;28;20040;-82
2021/10/11 19:25:17;;;;;;;10.68;1.33;;;;;;;;;;5048250;28;20078;-82
2021/10/11 19:27:59;;;;;;;11.35;2.33;;;;;;;;;;5050909;28;20279;-81
2021/10/11 19:30:36;;;;;;;9.77;1.80;;;;;;;;;;5087152;28;20070;-83
2021/10/11 19:33:05;;;;;;;23.60;2.17;;;;;;;;;;5081368;28;20089;-82